Time;durP1;ratioP1;P1;durP2;ratioP2;P2;SDS_P1;SDS_P2;PMS_P1;PMS_P2;Temp;Humidity;BMP_temperature;BMP_pressure;BME280_temperature;BME280_humidity;BME280_pressure;Samples;Min_cycle;Max_cycle;Signal;HPM_P1;HPM_P2
2022/03/05 00:00:25;;;;;;;15.70;12.60;;;;;;;;;;5029438;28;20896;-85
2022/03/05 00:02:52;;;;;;;16.30;12.63;;;;;;;;;;5004403;28;20431;-86
2022/03/05 00:05:18;;;;;;;15.70;12.10;;;;;;;;;;5008019;28;20439;-85
2022/03/05 00:07:45;;;;;;;17.48;11.85;;;;;;;;;;5014049;28;20437;-86
2022/03/05 00:10:13;;;;;;;15.18;11.90;;;;;;;;;;5010654;28;20440;-85
2022/03/05 00:12:39;;;;;;;15.97;12.83;;;;;;;;;;5008091;28;20447;-87
2022/03/05 00:15:06;;;;;;;15.27;11.60;;;;;;;;;;5009819;28;20863;-85
2022/03/05 00:17:32;;;;;;;15.68;11.43;;;;;;;;;;5014044;28;20433;-86
2022/03/05 00:19:58;;;;;;;13.85;11.55;;;;;;;;;;5006916;28;20447;-86
2022/03/05 00:22:25;;;;;;;12.90;10.98;;;;;;;;;;5007265;28;20432;-85
2022/03/05 00:24:51;;;;;;;13.05;10.10;;;;;;;;;;5010973;28;20435;-86
2022/03/05 00:27:19;;;;;;;13.13;10.40;;;;;;;;;;5010386;28;21054;-84
2022/03/05 00:29:45;;;;;;;14.67;10.83;;;;;;;;;;5008747;28;20834;-85
2022/03/05 00:32:11;;;;;;;17.33;11.23;;;;;;;;;;5008328;28;20438;-86
2022/03/05 00:34:38;;;;;;;13.60;10.57;;;;;;;;;;5032966;23;20452;-84
2022/03/05 00:37:05;;;;;;;14.20;10.23;;;;;;;;;;5014062;28;20440;-84
2022/03/05 00:39:31;;;;;;;12.57;9.95;;;;;;;;;;5017368;28;20922;-83
2022/03/05 00:41:57;;;;;;;13.48;10.32;;;;;;;;;;5021542;28;20419;-83
2022/03/05 00:44:25;;;;;;;13.50;9.52;;;;;;;;;;5019605;28;20435;-83
2022/03/05 00:46:52;;;;;;;13.95;11.10;;;;;;;;;;5022296;28;20426;-84
2022/03/05 00:49:18;;;;;;;15.70;11.73;;;;;;;;;;5019116;28;20432;-84
2022/03/05 00:51:44;;;;;;;13.20;10.67;;;;;;;;;;5021330;28;20424;-84
2022/03/05 00:54:11;;;;;;;15.75;11.07;;;;;;;;;;5022165;28;21112;-84
2022/03/05 00:56:37;;;;;;;14.35;10.55;;;;;;;;;;5019205;28;20453;-84
2022/03/05 00:59:03;;;;;;;15.98;11.40;;;;;;;;;;5022538;28;20429;-84
2022/03/05 01:01:31;;;;;;;14.60;10.52;;;;;;;;;;5019985;28;20780;-84
2022/03/05 01:03:57;;;;;;;13.88;10.55;;;;;;;;;;5020652;28;20431;-84
2022/03/05 01:06:24;;;;;;;13.75;10.88;;;;;;;;;;5020719;28;20414;-84
2022/03/05 01:08:50;;;;;;;14.63;10.53;;;;;;;;;;5019873;28;20511;-84
2022/03/05 01:11:16;;;;;;;14.50;10.40;;;;;;;;;;5011724;28;20962;-84
2022/03/05 01:13:43;;;;;;;12.90;9.75;;;;;;;;;;5015111;28;20431;-82
2022/03/05 01:16:09;;;;;;;12.65;10.63;;;;;;;;;;5012013;28;20435;-84
2022/03/05 01:18:37;;;;;;;14.32;10.68;;;;;;;;;;5012351;28;20447;-84
2022/03/05 01:21:03;;;;;;;15.50;11.00;;;;;;;;;;5010935;28;20425;-84
2022/03/05 01:23:30;;;;;;;17.40;11.43;;;;;;;;;;5011890;28;20904;-84
2022/03/05 01:25:56;;;;;;;13.70;9.80;;;;;;;;;;5012307;28;20799;-83
2022/03/05 01:28:22;;;;;;;14.88;11.18;;;;;;;;;;5010464;28;20434;-83
2022/03/05 01:30:48;;;;;;;14.90;10.93;;;;;;;;;;5011039;28;20465;-84
2022/03/05 01:33:17;;;;;;;14.57;10.50;;;;;;;;;;5013685;28;20435;-84
2022/03/05 01:35:45;;;;;;;13.02;11.15;;;;;;;;;;5011389;28;20448;-83
2022/03/05 01:38:11;;;;;;;14.43;10.30;;;;;;;;;;5013757;28;20443;-84
2022/03/05 01:40:38;;;;;;;14.77;10.57;;;;;;;;;;5019756;28;20491;-84
2022/03/05 01:43:05;;;;;;;12.32;10.60;;;;;;;;;;5020215;28;20830;-84
2022/03/05 01:45:32;;;;;;;13.57;9.60;;;;;;;;;;5019771;28;20438;-84
2022/03/05 01:47:58;;;;;;;14.80;10.25;;;;;;;;;;5020485;28;20877;-81
2022/03/05 01:50:24;;;;;;;13.73;9.80;;;;;;;;;;5020614;28;20426;-84
2022/03/05 01:52:53;;;;;;;16.17;10.43;;;;;;;;;;5020472;28;20423;-84
2022/03/05 01:55:20;;;;;;;13.80;8.98;;;;;;;;;;5020415;28;20815;-84
2022/03/05 01:57:46;;;;;;;13.90;9.90;;;;;;;;;;5021248;28;20427;-84
2022/03/05 02:00:13;;;;;;;11.80;9.30;;;;;;;;;;5017907;28;20895;-84
2022/03/05 02:02:40;;;;;;;12.80;9.20;;;;;;;;;;5019945;28;20507;-84
2022/03/05 02:05:06;;;;;;;12.17;9.97;;;;;;;;;;5025272;28;20480;-84
2022/03/05 02:07:33;;;;;;;12.95;8.90;;;;;;;;;;5023606;28;20428;-84
2022/03/05 02:10:01;;;;;;;14.43;9.30;;;;;;;;;;5024163;28;20464;-84
2022/03/05 02:12:27;;;;;;;10.80;9.00;;;;;;;;;;5013338;28;20434;-84
2022/03/05 02:14:54;;;;;;;14.95;9.55;;;;;;;;;;5014490;28;20455;-84
2022/03/05 02:17:20;;;;;;;14.20;9.40;;;;;;;;;;5017676;28;20432;-84
2022/03/05 02:19:46;;;;;;;17.47;9.20;;;;;;;;;;5013001;28;20438;-85
2022/03/05 02:22:14;;;;;;;11.20;8.60;;;;;;;;;;5013918;28;20435;-84
2022/03/05 02:24:40;;;;;;;12.40;8.40;;;;;;;;;;5017880;28;20480;-83
2022/03/05 02:27:07;;;;;;;10.68;8.10;;;;;;;;;;5015984;28;20776;-84
2022/03/05 02:29:34;;;;;;;11.13;8.20;;;;;;;;;;5015766;28;20446;-84
2022/03/05 02:32:01;;;;;;;10.98;8.32;;;;;;;;;;5014238;28;20441;-85
2022/03/05 02:34:27;;;;;;;12.13;7.72;;;;;;;;;;5014943;28;20430;-84
2022/03/05 02:36:54;;;;;;;9.25;7.10;;;;;;;;;;5015745;28;20428;-84
2022/03/05 02:39:24;;;;;;;12.70;7.65;;;;;;;;;;5017415;28;20427;-84
2022/03/05 02:41:50;;;;;;;8.38;6.93;;;;;;;;;;5017148;28;20428;-84
2022/03/05 02:44:16;;;;;;;10.57;7.40;;;;;;;;;;5023963;28;20420;-84
2022/03/05 02:46:42;;;;;;;12.63;7.33;;;;;;;;;;5022989;28;20870;-82
2022/03/05 02:49:09;;;;;;;9.20;7.22;;;;;;;;;;5011597;28;20432;-84
2022/03/05 02:51:35;;;;;;;9.50;7.40;;;;;;;;;;5013436;28;20779;-84
2022/03/05 02:54:02;;;;;;;11.70;7.88;;;;;;;;;;5014655;28;20436;-84
2022/03/05 02:56:29;;;;;;;12.70;7.68;;;;;;;;;;5019108;28;20808;-84
2022/03/05 02:58:56;;;;;;;9.10;7.15;;;;;;;;;;5022533;28;20413;-84
2022/03/05 03:01:22;;;;;;;11.30;7.20;;;;;;;;;;5022031;28;20796;-84
2022/03/05 03:03:49;;;;;;;8.75;7.55;;;;;;;;;;5022493;28;20432;-84
2022/03/05 03:06:16;;;;;;;9.65;6.95;;;;;;;;;;5020829;28;20917;-84
2022/03/05 03:08:42;;;;;;;12.13;7.30;;;;;;;;;;5019110;28;20491;-83
2022/03/05 03:11:08;;;;;;;8.40;6.70;;;;;;;;;;5019688;28;20428;-84
2022/03/05 03:13:37;;;;;;;10.85;7.50;;;;;;;;;;5022628;28;20428;-83
2022/03/05 03:16:03;;;;;;;8.98;6.85;;;;;;;;;;5021897;28;20458;-84
2022/03/05 03:18:29;;;;;;;8.57;7.20;;;;;;;;;;5020798;28;20935;-84
2022/03/05 03:20:56;;;;;;;8.90;6.82;;;;;;;;;;5021653;28;20413;-84
2022/03/05 03:23:22;;;;;;;9.03;6.43;;;;;;;;;;5020394;28;20424;-84
2022/03/05 03:25:48;;;;;;;7.63;6.50;;;;;;;;;;5020453;28;20415;-84
2022/03/05 03:28:14;;;;;;;10.80;6.35;;;;;;;;;;5012379;28;20439;-84
2022/03/05 03:30:42;;;;;;;8.90;6.40;;;;;;;;;;5014860;28;20454;-84
2022/03/05 03:33:09;;;;;;;11.27;7.00;;;;;;;;;;5013539;28;20427;-84
2022/03/05 03:35:35;;;;;;;8.93;6.18;;;;;;;;;;5013026;28;20429;-84
2022/03/05 03:38:01;;;;;;;9.60;6.68;;;;;;;;;;5016974;28;20424;-83
2022/03/05 03:40:28;;;;;;;9.93;6.63;;;;;;;;;;5010433;28;20432;-84
2022/03/05 03:42:54;;;;;;;9.23;6.40;;;;;;;;;;5011881;28;20572;-84
2022/03/05 03:45:20;;;;;;;11.20;6.68;;;;;;;;;;5012184;28;20440;-84
2022/03/05 03:47:50;;;;;;;8.88;6.45;;;;;;;;;;5011503;28;20433;-84
2022/03/05 03:50:16;;;;;;;9.77;6.03;;;;;;;;;;5010080;28;20473;-84
2022/03/05 03:52:43;;;;;;;7.90;6.22;;;;;;;;;;5011350;28;20765;-84
2022/03/05 03:55:11;;;;;;;9.80;6.28;;;;;;;;;;5011514;28;20416;-84
2022/03/05 03:57:38;;;;;;;8.65;6.28;;;;;;;;;;5012645;28;20495;-84
2022/03/05 04:00:04;;;;;;;8.80;6.50;;;;;;;;;;5010036;28;20554;-84
2022/03/05 04:02:31;;;;;;;8.05;6.10;;;;;;;;;;5010487;28;20513;-84
2022/03/05 04:04:58;;;;;;;8.57;6.40;;;;;;;;;;5010544;28;20464;-84
2022/03/05 04:10:09;;;;;;;8.07;5.60;;;;;;;;;;5011523;28;20420;-84
2022/03/05 04:12:35;;;;;;;8.57;6.07;;;;;;;;;;5014202;28;20440;-84
2022/03/05 04:15:02;;;;;;;9.95;5.70;;;;;;;;;;5012575;28;20522;-84
2022/03/05 04:17:28;;;;;;;6.77;5.50;;;;;;;;;;5012693;28;20424;-84
2022/03/05 04:19:55;;;;;;;7.80;5.30;;;;;;;;;;5009398;28;20436;-83
2022/03/05 04:22:22;;;;;;;7.30;5.70;;;;;;;;;;5009633;28;20434;-84
2022/03/05 04:24:49;;;;;;;7.20;5.72;;;;;;;;;;5009467;28;20428;-84
2022/03/05 04:27:15;;;;;;;8.50;5.40;;;;;;;;;;5013207;28;20942;-84
2022/03/05 04:29:41;;;;;;;6.97;5.13;;;;;;;;;;5007356;28;20459;-84
2022/03/05 04:32:08;;;;;;;8.45;5.88;;;;;;;;;;5010197;28;20438;-84
2022/03/05 04:34:34;;;;;;;8.93;5.57;;;;;;;;;;5011109;28;20947;-84
2022/03/05 04:37:00;;;;;;;7.47;5.40;;;;;;;;;;5010383;28;20430;-84
2022/03/05 04:39:28;;;;;;;8.05;5.07;;;;;;;;;;5012650;28;20997;-84
2022/03/05 04:41:54;;;;;;;10.25;5.72;;;;;;;;;;5008718;28;20452;-84
2022/03/05 04:44:21;;;;;;;6.45;5.10;;;;;;;;;;5010176;28;20424;-85
2022/03/05 04:46:47;;;;;;;6.80;5.15;;;;;;;;;;5008759;28;20431;-84
2022/03/05 04:49:13;;;;;;;6.05;4.50;;;;;;;;;;5010181;28;20425;-84
2022/03/05 04:51:40;;;;;;;6.35;5.03;;;;;;;;;;5012527;28;20914;-84
2022/03/05 04:54:06;;;;;;;6.70;5.40;;;;;;;;;;5012285;28;20430;-85
2022/03/05 04:56:33;;;;;;;10.38;4.93;;;;;;;;;;5018748;28;20432;-84
2022/03/05 04:59:00;;;;;;;6.20;4.50;;;;;;;;;;5020919;28;20447;-84
2022/03/05 05:01:26;;;;;;;7.57;5.30;;;;;;;;;;5020538;28;20415;-84
2022/03/05 05:03:53;;;;;;;6.47;4.50;;;;;;;;;;5018217;28;20432;-84
2022/03/05 05:06:19;;;;;;;6.97;4.80;;;;;;;;;;5019143;28;20420;-84
2022/03/05 05:08:45;;;;;;;7.22;5.55;;;;;;;;;;5021764;28;20428;-84
2022/03/05 05:11:11;;;;;;;7.33;5.10;;;;;;;;;;5022413;28;20427;-84
2022/03/05 05:13:39;;;;;;;7.18;4.97;;;;;;;;;;5022184;28;20432;-84
2022/03/05 05:16:06;;;;;;;6.32;4.47;;;;;;;;;;5020190;28;20427;-84
2022/03/05 05:18:33;;;;;;;6.80;4.60;;;;;;;;;;5019556;28;20502;-84
2022/03/05 05:20:59;;;;;;;5.82;3.80;;;;;;;;;;5017543;28;20421;-84
2022/03/05 05:23:26;;;;;;;9.07;4.68;;;;;;;;;;5019407;28;20424;-84
2022/03/05 05:25:52;;;;;;;7.50;4.93;;;;;;;;;;5019197;28;20407;-84
2022/03/05 05:28:18;;;;;;;6.35;4.60;;;;;;;;;;5012647;28;20494;-84
2022/03/05 05:30:46;;;;;;;8.23;4.93;;;;;;;;;;5012164;28;20426;-84
2022/03/05 05:33:12;;;;;;;5.85;3.92;;;;;;;;;;5012347;28;20442;-84
2022/03/05 05:35:38;;;;;;;7.95;4.50;;;;;;;;;;5013686;28;20425;-84
2022/03/05 05:38:05;;;;;;;6.82;4.50;;;;;;;;;;5011085;28;20440;-85
2022/03/05 05:40:31;;;;;;;8.57;4.20;;;;;;;;;;5009599;28;20609;-84
2022/03/05 05:42:58;;;;;;;7.28;4.40;;;;;;;;;;5011845;28;20431;-84
2022/03/05 05:45:24;;;;;;;6.00;4.28;;;;;;;;;;5013502;28;20911;-84
2022/03/05 05:47:52;;;;;;;8.77;4.50;;;;;;;;;;5009709;28;21136;-84
2022/03/05 05:50:18;;;;;;;8.43;4.40;;;;;;;;;;5009759;28;20443;-84
2022/03/05 05:52:44;;;;;;;6.97;4.05;;;;;;;;;;5009974;28;20779;-84
2022/03/05 05:55:11;;;;;;;6.90;4.25;;;;;;;;;;5009537;28;20435;-84
2022/03/05 05:57:37;;;;;;;9.10;4.43;;;;;;;;;;5011104;28;20425;-84
2022/03/05 06:00:04;;;;;;;8.23;4.60;;;;;;;;;;5010539;28;20425;-84
2022/03/05 06:02:30;;;;;;;8.40;4.77;;;;;;;;;;5011951;28;20430;-84
2022/03/05 06:04:58;;;;;;;6.30;4.38;;;;;;;;;;5011892;28;20431;-83
2022/03/05 06:07:24;;;;;;;6.70;4.50;;;;;;;;;;5013048;28;20431;-84
2022/03/05 06:09:50;;;;;;;9.38;4.65;;;;;;;;;;5014443;28;20440;-84
2022/03/05 06:12:17;;;;;;;9.25;4.47;;;;;;;;;;5014132;28;20766;-84
2022/03/05 06:14:43;;;;;;;7.20;4.80;;;;;;;;;;5016317;28;20437;-83
2022/03/05 06:17:09;;;;;;;6.05;4.30;;;;;;;;;;5010818;28;20478;-84
2022/03/05 06:19:36;;;;;;;7.35;5.40;;;;;;;;;;5008851;28;20477;-85
2022/03/05 06:22:04;;;;;;;6.63;4.35;;;;;;;;;;5011006;28;20439;-84
2022/03/05 06:24:31;;;;;;;8.47;4.50;;;;;;;;;;5010997;28;20422;-84
2022/03/05 06:26:57;;;;;;;6.30;4.35;;;;;;;;;;5014821;28;20430;-84
2022/03/05 06:29:23;;;;;;;6.57;4.45;;;;;;;;;;5013833;28;20432;-85
2022/03/05 06:31:51;;;;;;;7.50;4.30;;;;;;;;;;5012530;28;20432;-84
2022/03/05 06:34:17;;;;;;;7.10;4.40;;;;;;;;;;5037764;23;20433;-83
2022/03/05 06:36:43;;;;;;;7.25;4.50;;;;;;;;;;5039535;28;20429;-83
2022/03/05 06:39:11;;;;;;;9.18;4.65;;;;;;;;;;5036647;28;20432;-83
2022/03/05 06:41:37;;;;;;;6.03;4.50;;;;;;;;;;5038182;28;20816;-84
2022/03/05 06:44:04;;;;;;;6.13;4.50;;;;;;;;;;5038805;28;20433;-83
2022/03/05 06:46:30;;;;;;;7.82;5.15;;;;;;;;;;5035840;28;20780;-84
2022/03/05 06:48:57;;;;;;;8.35;4.35;;;;;;;;;;5039287;28;20433;-84
2022/03/05 06:51:23;;;;;;;6.82;5.00;;;;;;;;;;5041446;28;20426;-84
2022/03/05 06:53:49;;;;;;;8.70;5.35;;;;;;;;;;5039787;28;20446;-83
2022/03/05 06:56:17;;;;;;;9.70;4.80;;;;;;;;;;5041242;28;20912;-84
2022/03/05 06:58:43;;;;;;;7.90;4.30;;;;;;;;;;5040406;28;20946;-83
2022/03/05 07:01:10;;;;;;;5.30;4.40;;;;;;;;;;5042195;28;20430;-84
2022/03/05 07:03:37;;;;;;;7.95;3.72;;;;;;;;;;5040511;28;20430;-85
2022/03/05 07:06:03;;;;;;;7.32;4.57;;;;;;;;;;5041254;28;20418;-84
2022/03/05 07:08:29;;;;;;;8.15;4.68;;;;;;;;;;5041156;28;20426;-83
2022/03/05 07:10:56;;;;;;;7.70;4.70;;;;;;;;;;5035528;28;20434;-85
2022/03/05 07:13:23;;;;;;;7.80;4.67;;;;;;;;;;5043408;28;20417;-85
2022/03/05 07:15:50;;;;;;;7.97;5.40;;;;;;;;;;5045241;28;20405;-85
2022/03/05 07:18:16;;;;;;;5.82;4.63;;;;;;;;;;5045396;28;20423;-85
2022/03/05 07:20:42;;;;;;;8.55;5.35;;;;;;;;;;5040397;28;20516;-84
2022/03/05 07:23:09;;;;;;;9.18;5.55;;;;;;;;;;5040241;28;20431;-83
2022/03/05 07:25:39;;;;;;;7.28;5.35;;;;;;;;;;5040174;28;20426;-85
2022/03/05 07:28:05;;;;;;;8.75;5.55;;;;;;;;;;5044241;28;20429;-86
2022/03/05 07:30:33;;;;;;;8.70;5.75;;;;;;;;;;5040492;28;20435;-87
2022/03/05 07:32:59;;;;;;;10.02;5.50;;;;;;;;;;5043221;28;20411;-86
2022/03/05 07:35:26;;;;;;;10.05;5.95;;;;;;;;;;5038702;28;20429;-86
2022/03/05 07:37:52;;;;;;;7.43;5.55;;;;;;;;;;5040786;28;20411;-86
2022/03/05 07:40:18;;;;;;;9.87;6.50;;;;;;;;;;5042246;28;20482;-85
2022/03/05 07:42:45;;;;;;;10.48;6.00;;;;;;;;;;5034919;28;20955;-85
2022/03/05 07:45:11;;;;;;;9.10;6.20;;;;;;;;;;5041644;28;20426;-85
2022/03/05 07:47:39;;;;;;;9.18;6.47;;;;;;;;;;5040156;28;20422;-85
2022/03/05 07:50:06;;;;;;;10.07;6.40;;;;;;;;;;5040597;28;20424;-87
2022/03/05 07:52:32;;;;;;;8.10;6.68;;;;;;;;;;5040383;28;20905;-84
2022/03/05 07:54:59;;;;;;;9.50;6.90;;;;;;;;;;5042044;28;20425;-84
2022/03/05 07:57:25;;;;;;;11.73;7.88;;;;;;;;;;5041991;28;20896;-84
2022/03/05 07:59:51;;;;;;;11.65;7.00;;;;;;;;;;5042544;28;20417;-84
2022/03/05 08:02:18;;;;;;;12.40;7.73;;;;;;;;;;5042466;28;20425;-84
2022/03/05 08:04:47;;;;;;;10.55;7.78;;;;;;;;;;5041181;28;20995;-85
2022/03/05 08:07:14;;;;;;;9.80;7.82;;;;;;;;;;5040122;28;20419;-86
2022/03/05 08:09:41;;;;;;;13.00;8.68;;;;;;;;;;5038394;28;20406;-84
2022/03/05 08:12:07;;;;;;;10.50;7.70;;;;;;;;;;5038414;28;20419;-83
2022/03/05 08:14:34;;;;;;;11.50;8.00;;;;;;;;;;5035223;28;20433;-82
2022/03/05 08:17:00;;;;;;;10.27;7.30;;;;;;;;;;5038330;28;20425;-83
2022/03/05 08:19:26;;;;;;;13.50;8.77;;;;;;;;;;5045270;28;20415;-85
2022/03/05 08:21:54;;;;;;;14.45;8.85;;;;;;;;;;5038889;28;20425;-85
2022/03/05 08:24:21;;;;;;;12.23;8.45;;;;;;;;;;5040421;28;20429;-83
2022/03/05 08:26:47;;;;;;;13.68;7.75;;;;;;;;;;5032917;28;20436;-83
2022/03/05 08:29:14;;;;;;;11.60;8.52;;;;;;;;;;5043576;28;20472;-84
2022/03/05 08:31:40;;;;;;;13.63;9.07;;;;;;;;;;5038858;28;20491;-85
2022/03/05 08:34:06;;;;;;;12.93;8.88;;;;;;;;;;5043448;28;20435;-82
2022/03/05 08:36:33;;;;;;;12.07;8.95;;;;;;;;;;5040034;28;20429;-85
2022/03/05 08:39:01;;;;;;;13.20;8.15;;;;;;;;;;5039648;28;20842;-86
2022/03/05 08:41:27;;;;;;;11.48;7.95;;;;;;;;;;5040162;28;20430;-85
2022/03/05 08:43:53;;;;;;;17.85;9.25;;;;;;;;;;5040173;28;20488;-85
2022/03/05 08:46:20;;;;;;;15.23;9.15;;;;;;;;;;5041660;28;20421;-87
2022/03/05 08:48:46;;;;;;;13.20;8.90;;;;;;;;;;5041740;28;20414;-84
2022/03/05 08:51:12;;;;;;;12.57;8.20;;;;;;;;;;5035912;28;20427;-86
2022/03/05 08:53:38;;;;;;;12.40;8.70;;;;;;;;;;5035154;28;20475;-84
2022/03/05 08:56:06;;;;;;;12.27;9.10;;;;;;;;;;5039624;28;20422;-86
2022/03/05 08:58:32;;;;;;;13.43;9.55;;;;;;;;;;5041948;28;20418;-87
2022/03/05 09:00:59;;;;;;;14.30;9.35;;;;;;;;;;5037249;28;20425;-84
2022/03/05 09:03:26;;;;;;;14.70;9.82;;;;;;;;;;5039184;28;20473;-85
2022/03/05 09:05:52;;;;;;;14.80;9.50;;;;;;;;;;5037766;28;20475;-84
2022/03/05 09:08:19;;;;;;;14.55;10.20;;;;;;;;;;5036908;28;20441;-84
2022/03/05 09:10:46;;;;;;;15.32;10.00;;;;;;;;;;5034732;28;20437;-82
2022/03/05 09:13:13;;;;;;;14.35;9.02;;;;;;;;;;5035983;28;20421;-84
2022/03/05 09:15:40;;;;;;;15.80;10.45;;;;;;;;;;5038811;28;20423;-83
2022/03/05 09:18:06;;;;;;;14.67;9.30;;;;;;;;;;5037628;28;20419;-83
2022/03/05 09:20:32;;;;;;;12.85;9.65;;;;;;;;;;5036460;28;20477;-84
2022/03/05 09:22:59;;;;;;;13.80;9.90;;;;;;;;;;5037068;28;20422;-84
2022/03/05 09:25:25;;;;;;;15.50;10.73;;;;;;;;;;5034620;28;20530;-85
2022/03/05 09:27:52;;;;;;;13.90;9.75;;;;;;;;;;5035767;28;20419;-82
2022/03/05 09:30:20;;;;;;;14.77;10.45;;;;;;;;;;5037269;28;20429;-83
2022/03/05 09:32:47;;;;;;;14.80;9.90;;;;;;;;;;5036590;28;20531;-84
2022/03/05 09:35:13;;;;;;;14.95;10.70;;;;;;;;;;5036357;28;20433;-82
2022/03/05 09:37:39;;;;;;;13.15;10.02;;;;;;;;;;5034857;28;20821;-83
2022/03/05 09:40:06;;;;;;;13.65;10.25;;;;;;;;;;5034649;28;20430;-81
2022/03/05 09:42:33;;;;;;;16.10;10.68;;;;;;;;;;5035745;28;20425;-82
2022/03/05 09:44:59;;;;;;;14.02;10.20;;;;;;;;;;5038195;28;20466;-82
2022/03/05 09:47:27;;;;;;;13.70;10.48;;;;;;;;;;5038281;28;20421;-83
2022/03/05 09:49:54;;;;;;;12.60;10.43;;;;;;;;;;5033897;28;20429;-83
2022/03/05 09:52:21;;;;;;;12.40;9.40;;;;;;;;;;5036524;28;20449;-83
2022/03/05 09:54:47;;;;;;;13.57;10.00;;;;;;;;;;5033722;28;20441;-83
2022/03/05 09:57:14;;;;;;;14.10;10.23;;;;;;;;;;5037644;28;20443;-84
2022/03/05 09:59:40;;;;;;;15.25;10.15;;;;;;;;;;5033785;28;20484;-83
2022/03/05 10:02:07;;;;;;;14.52;10.70;;;;;;;;;;5034926;28;20425;-83
2022/03/05 10:04:35;;;;;;;13.55;9.70;;;;;;;;;;5037549;28;20417;-83
2022/03/05 10:07:08;;;;;;;13.95;10.18;;;;;;;;;;5037709;28;20424;-84
2022/03/05 10:09:34;;;;;;;14.37;9.37;;;;;;;;;;5036615;28;20418;-84
2022/03/05 10:12:00;;;;;;;13.18;8.82;;;;;;;;;;5035356;28;20423;-84
2022/03/05 10:14:26;;;;;;;14.37;9.80;;;;;;;;;;5035309;28;20422;-83
2022/03/05 10:16:59;;;;;;;11.82;9.60;;;;;;;;;;5037192;28;21199;-83
2022/03/05 10:19:25;;;;;;;14.20;9.80;;;;;;;;;;5035923;28;20425;-84
2022/03/05 10:21:58;;;;;;;13.27;9.50;;;;;;;;;;5037147;28;20426;-84
2022/03/05 10:24:31;;;;;;;13.43;9.15;;;;;;;;;;5039026;28;20415;-83
2022/03/05 10:26:58;;;;;;;10.50;8.15;;;;;;;;;;5032862;28;20941;-82
2022/03/05 10:29:25;;;;;;;10.80;8.53;;;;;;;;;;5039670;28;20488;-84
2022/03/05 10:31:58;;;;;;;13.27;8.65;;;;;;;;;;5039970;28;20428;-82
2022/03/05 10:34:24;;;;;;;11.25;8.60;;;;;;;;;;5040741;28;20492;-83
2022/03/05 10:36:58;;;;;;;11.37;8.77;;;;;;;;;;5039569;28;20516;-83
2022/03/05 10:39:25;;;;;;;10.18;8.00;;;;;;;;;;5037967;28;20506;-83
2022/03/05 10:41:52;;;;;;;8.90;8.00;;;;;;;;;;5037950;28;20429;-82
2022/03/05 10:44:19;;;;;;;10.35;8.80;;;;;;;;;;5040423;28;20462;-84
2022/03/05 10:46:47;;;;;;;9.80;8.45;;;;;;;;;;5038272;28;20415;-82
2022/03/05 10:49:15;;;;;;;10.73;8.48;;;;;;;;;;5041586;28;20501;-82
2022/03/05 10:51:44;;;;;;;9.10;7.90;;;;;;;;;;5040769;28;20423;-81
2022/03/05 10:54:12;;;;;;;10.30;7.60;;;;;;;;;;5041071;28;20417;-82
2022/03/05 10:56:38;;;;;;;10.98;8.20;;;;;;;;;;5039042;28;20422;-82
2022/03/05 10:59:06;;;;;;;8.70;7.63;;;;;;;;;;5040504;28;20411;-83
2022/03/05 11:01:33;;;;;;;13.93;8.60;;;;;;;;;;5038144;28;20427;-82
2022/03/05 11:04:00;;;;;;;9.90;8.10;;;;;;;;;;5038196;28;20414;-82
2022/03/05 11:06:27;;;;;;;9.05;7.38;;;;;;;;;;5039666;28;20451;-82
2022/03/05 11:08:54;;;;;;;9.57;7.43;;;;;;;;;;5036398;28;20457;-83
2022/03/05 11:11:21;;;;;;;10.18;7.97;;;;;;;;;;5040621;28;20423;-82
2022/03/05 11:13:48;;;;;;;10.43;7.90;;;;;;;;;;5039785;28;20435;-81
2022/03/05 11:16:14;;;;;;;10.65;7.70;;;;;;;;;;5041003;28;20901;-83
2022/03/05 11:18:41;;;;;;;11.43;7.80;;;;;;;;;;5035907;28;20425;-82
2022/03/05 11:21:07;;;;;;;10.73;8.20;;;;;;;;;;5038599;28;20788;-83
2022/03/05 11:23:34;;;;;;;11.48;8.45;;;;;;;;;;5036785;28;20417;-82
2022/03/05 11:26:01;;;;;;;10.90;8.33;;;;;;;;;;5037853;28;20527;-82
2022/03/05 11:28:34;;;;;;;9.82;8.40;;;;;;;;;;5039345;28;20427;-83
2022/03/05 11:31:00;;;;;;;10.68;8.73;;;;;;;;;;5038554;28;20514;-82
2022/03/05 11:33:34;;;;;;;9.65;7.65;;;;;;;;;;5040996;28;20418;-82
2022/03/05 11:36:03;;;;;;;10.20;8.50;;;;;;;;;;5035613;28;20425;-81
2022/03/05 11:38:34;;;;;;;9.82;7.75;;;;;;;;;;5040752;28;21127;-83
2022/03/05 11:41:05;;;;;;;10.32;7.35;;;;;;;;;;5037365;28;20500;-82
2022/03/05 11:43:41;;;;;;;11.07;8.07;;;;;;;;;;5040893;28;20424;-83
2022/03/05 11:46:08;;;;;;;9.20;7.43;;;;;;;;;;5039943;28;20422;-82
2022/03/05 11:48:34;;;;;;;8.90;7.50;;;;;;;;;;5040081;28;20485;-82
2022/03/05 11:51:02;;;;;;;11.18;7.80;;;;;;;;;;5037976;28;20415;-81
2022/03/05 11:53:28;;;;;;;11.93;7.90;;;;;;;;;;5035918;28;20415;-81
2022/03/05 11:55:54;;;;;;;11.80;8.05;;;;;;;;;;5038010;28;20418;-82
2022/03/05 11:58:35;;;;;;;9.30;7.80;;;;;;;;;;5039316;28;20419;-83
2022/03/05 12:01:21;;;;;;;10.32;8.40;;;;;;;;;;5037982;28;20421;-82
2022/03/05 12:03:52;;;;;;;9.60;7.40;;;;;;;;;;5040842;28;20486;-82
2022/03/05 12:06:19;;;;;;;13.02;7.80;;;;;;;;;;5037034;28;20496;-82
2022/03/05 12:08:53;;;;;;;12.15;7.90;;;;;;;;;;5035024;28;20431;-83
2022/03/05 12:11:20;;;;;;;11.60;8.10;;;;;;;;;;5037100;28;20792;-83
2022/03/05 12:13:50;;;;;;;11.00;8.10;;;;;;;;;;5036155;28;20431;-82
2022/03/05 12:16:17;;;;;;;10.95;8.05;;;;;;;;;;5038240;28;20421;-81
2022/03/05 12:18:44;;;;;;;10.35;8.30;;;;;;;;;;5036526;28;20424;-81
2022/03/05 12:21:11;;;;;;;11.63;7.78;;;;;;;;;;5038114;28;20428;-81
2022/03/05 12:23:37;;;;;;;10.35;8.27;;;;;;;;;;5037880;28;20425;-81
2022/03/05 12:26:04;;;;;;;9.75;7.18;;;;;;;;;;5033821;28;20417;-81
2022/03/05 12:28:42;;;;;;;10.70;8.20;;;;;;;;;;5037121;28;20427;-83
2022/03/05 12:31:16;;;;;;;10.60;8.10;;;;;;;;;;5037965;28;20425;-81
2022/03/05 12:33:45;;;;;;;10.67;7.80;;;;;;;;;;5037738;28;20495;-80
2022/03/05 12:38:40;;;;;;;11.00;7.78;;;;;;;;;;4980645;28;20445;-82
2022/03/05 12:41:06;;;;;;;11.93;8.45;;;;;;;;;;4982306;28;20424;-83
2022/03/05 12:43:33;;;;;;;10.35;8.00;;;;;;;;;;4983786;28;20440;-82
2022/03/05 12:46:00;;;;;;;11.53;8.10;;;;;;;;;;4982425;28;20424;-83
2022/03/05 12:48:27;;;;;;;10.13;8.32;;;;;;;;;;4982007;28;20431;-83
2022/03/05 12:50:54;;;;;;;12.57;8.52;;;;;;;;;;4984498;28;20446;-83
2022/03/05 12:53:21;;;;;;;12.35;8.70;;;;;;;;;;4982942;28;21005;-82
2022/03/05 12:55:48;;;;;;;10.70;8.00;;;;;;;;;;4981115;28;20419;-83
2022/03/05 12:58:15;;;;;;;10.13;7.90;;;;;;;;;;4982019;28;20515;-82
2022/03/05 13:00:43;;;;;;;10.73;8.13;;;;;;;;;;4979354;28;20443;-83
2022/03/05 13:03:11;;;;;;;11.65;8.30;;;;;;;;;;4983790;28;20453;-83
2022/03/05 13:05:39;;;;;;;13.38;8.52;;;;;;;;;;4982799;28;20772;-83
2022/03/05 13:08:06;;;;;;;11.45;8.93;;;;;;;;;;4980523;28;20436;-83
2022/03/05 13:10:32;;;;;;;9.82;8.10;;;;;;;;;;4981705;28;20484;-81
2022/03/05 13:12:59;;;;;;;12.05;8.10;;;;;;;;;;4980803;28;20434;-83
2022/03/05 13:15:26;;;;;;;11.47;8.37;;;;;;;;;;4983413;28;20424;-83
2022/03/05 13:17:53;;;;;;;12.00;8.80;;;;;;;;;;4983310;28;20424;-83
2022/03/05 13:20:20;;;;;;;9.60;7.68;;;;;;;;;;4981045;28;20786;-83
2022/03/05 13:22:49;;;;;;;9.90;7.60;;;;;;;;;;4980866;28;20513;-83
2022/03/05 13:25:15;;;;;;;10.77;7.78;;;;;;;;;;4980459;28;20808;-83
2022/03/05 13:27:42;;;;;;;12.48;8.43;;;;;;;;;;4981956;28;20434;-83
2022/03/05 13:30:09;;;;;;;10.25;8.52;;;;;;;;;;4979543;28;20435;-83
2022/03/05 13:32:42;;;;;;;9.95;8.30;;;;;;;;;;4980721;28;20457;-83
2022/03/05 13:35:08;;;;;;;12.45;8.50;;;;;;;;;;4984028;28;20424;-83
2022/03/05 13:37:37;;;;;;;12.23;8.43;;;;;;;;;;4982348;28;20975;-83
2022/03/05 13:40:05;;;;;;;10.03;8.10;;;;;;;;;;4980513;28;20534;-84
2022/03/05 13:42:32;;;;;;;10.47;7.70;;;;;;;;;;4978887;28;20437;-84
2022/03/05 13:45:00;;;;;;;11.60;8.32;;;;;;;;;;4979412;28;20463;-84
2022/03/05 13:47:26;;;;;;;10.60;8.18;;;;;;;;;;4979050;28;20447;-84
2022/03/05 13:49:52;;;;;;;10.27;7.82;;;;;;;;;;4979513;28;20434;-84
2022/03/05 13:52:20;;;;;;;11.25;8.13;;;;;;;;;;4983392;28;20418;-83
2022/03/05 13:54:48;;;;;;;11.15;8.70;;;;;;;;;;4982455;28;20438;-83
2022/03/05 13:57:27;;;;;;;11.60;8.55;;;;;;;;;;4982015;28;20457;-84
2022/03/05 13:59:54;;;;;;;11.03;8.17;;;;;;;;;;4985456;28;20417;-84
2022/03/05 14:02:20;;;;;;;11.90;8.10;;;;;;;;;;4983556;28;20436;-84
2022/03/05 14:04:56;;;;;;;11.73;8.20;;;;;;;;;;4986545;28;20489;-83
2022/03/05 14:07:22;;;;;;;11.37;8.30;;;;;;;;;;4986892;28;20518;-84
2022/03/05 14:09:48;;;;;;;9.07;7.57;;;;;;;;;;4990256;28;20432;-86
2022/03/05 14:12:16;;;;;;;10.38;8.10;;;;;;;;;;4988341;28;20926;-84
2022/03/05 14:14:49;;;;;;;10.25;8.30;;;;;;;;;;4990675;28;21036;-83
2022/03/05 14:17:31;;;;;;;10.45;7.90;;;;;;;;;;4988592;28;20488;-84
2022/03/05 14:20:11;;;;;;;12.55;8.38;;;;;;;;;;4987441;28;20426;-85
2022/03/05 14:22:38;;;;;;;10.43;8.30;;;;;;;;;;4986447;28;20773;-83
2022/03/05 14:25:05;;;;;;;11.18;9.27;;;;;;;;;;4989707;28;20430;-85
2022/03/05 14:27:31;;;;;;;9.85;7.97;;;;;;;;;;4987030;28;20515;-84
2022/03/05 14:29:59;;;;;;;12.40;8.73;;;;;;;;;;4988159;28;20436;-84
2022/03/05 14:32:25;;;;;;;10.40;8.70;;;;;;;;;;4988631;28;20811;-85
2022/03/05 14:34:52;;;;;;;10.55;8.48;;;;;;;;;;4987753;28;20453;-85
2022/03/05 14:37:19;;;;;;;9.55;8.30;;;;;;;;;;4984775;28;20488;-84